Hlavní strana
METAR-TAF:

METAR-TAF

Letiště :

Victoria, Mahé, Seychely

zeměpisná šířka: 04-40S, zeměpisná délka: 055-31E, výška: 3 m

Aktuální stav počasí

Zpráva byla vytvořena před 22 minutami, v 13:00 UTC
vítr z různých směrů 2 kt
Teplota 30°C
Vlhkost vzduchu 79%
Tlak 1008 hPa
Viditelnost 10 km a více
Skoro jasno ve výšce 2000 ft, Cumulonimbus.

METAR: FSIA 141300Z VRB02KT 9999 FEW020CB 30/26 Q1008 NOSIG

Čas: 17:22 (13:22 UTC)

Předpověď počasí

Zpráva byla vytvořena před 2 hodinami a 22 minutami, v 11:00 UTC
Předpověď platná od 14 v 12 UTC do 15 v 12 UTC
vítr z různých směrů 3 kt
Viditelnost 10 km a více
Skoro jasno ve výšce 1900 ft, Cumulonimbus.
Polojasno ve výšce 2200 ft
Pravděpodobnost 40% :
Dočasný
od 14 v 13 UTC do 14 v 17 UTC
Viditelnost: 8000 m
Skoro jasno ve výšce 1700 ft, Cumulonimbus.
Oblačno až skoro zataženo ve výšce 1900 ft
dešťové přeháňky,

TAF: FSIA 141100Z 1412/1512 VRB03KT 9999 FEW019CB SCT022 PROB40 TEMPO 1413/1417 8000 SHRA FEW017CB BKN019

Stav a předpovědi počasí z více než 4 000 letišť (zprávy METAR a TAF).

Červené a žluté tečky na mapě představují dostupné meteorologické stanice.

Když kurzor umístíte na tečku, zobrazí se název stanice.

Pak kliknutím zobrazíte stav a předpověď počasí.

Chcete-li změnit mapu, kliknutím na zelené tlačítko se znaménkem +mapu přiblížíte, kliknutím na zelené tlačítko se znaménkem – mapu oddálíte a kliknutím na zelené šipky přejdete na sousední mapy.


METAR-TAF: